In Rescue
 
Open Full Screen Window  High Contrast Mode
Wind Gusting 00 knots
11
May 27, 2024 2:55 PM CDT
Present Weather: Thunderstorms in the Vicinity
Weather Information
Wind Direction
  040 °
Wind Speed
  11 kt (13 mph)
Wind Gust
  00 kt (0 mph)
Altimeter
29.78 in
Visibility
10 SM
Temperature
18° C
64° F
Dewpoint
15° C
59° F
Humidity
83%
Sky Condition
Broken @ 6,000 ft
Scattered @ 3,600 ft
Few @ 2,800 ft
VFR

METAR KCFE 271955Z AUTO 04011KT 10SM VCTS FEW028 SCT036 BKN060 18/15 A2978 RMK AO2 LTG DSNT ALQDS

FAA Disclaimer: The data displayed is for advisory purposes only and is not to be used for flight planning or operations.